Time;durP1;ratioP1;P1;durP2;ratioP2;P2;SDS_P1;SDS_P2;PMS_P1;PMS_P2;Temp;Humidity;BMP_temperature;BMP_pressure;BME280_temperature;BME280_humidity;BME280_pressure;Samples;Min_cycle;Max_cycle;Signal;HPM_P1;HPM_P2
2021/08/27 00:01:22;;;;;;;12.10;3.65;;;;;;;;;;5075110;28;20020;-37
2021/08/27 00:03:47;;;;;;;4.32;3.40;;;;;;;;;;5073327;28;20044;-37
2021/08/27 00:06:12;;;;;;;4.93;3.67;;;;;;;;;;5076481;28;20519;-37
2021/08/27 00:08:38;;;;;;;6.00;4.35;;;;;;;;;;5074050;28;20499;-38
2021/08/27 00:11:03;;;;;;;3.83;3.10;;;;;;;;;;5076499;28;20036;-38
2021/08/27 00:13:29;;;;;;;3.70;3.05;;;;;;;;;;5078582;28;20031;-37
2021/08/27 00:15:54;;;;;;;5.13;3.97;;;;;;;;;;5079116;28;20047;-37
2021/08/27 00:18:19;;;;;;;3.90;3.15;;;;;;;;;;5077006;28;20039;-36
2021/08/27 00:20:45;;;;;;;5.20;3.35;;;;;;;;;;5075854;28;20039;-36
2021/08/27 00:23:10;;;;;;;4.35;3.70;;;;;;;;;;5075589;28;20020;-37
2021/08/27 00:25:35;;;;;;;9.23;4.55;;;;;;;;;;5074399;28;20016;-38
2021/08/27 00:28:02;;;;;;;5.10;4.10;;;;;;;;;;5074805;28;20024;-37
2021/08/27 00:30:28;;;;;;;6.60;3.38;;;;;;;;;;5076682;28;20088;-38
2021/08/27 00:32:53;;;;;;;6.50;3.35;;;;;;;;;;5075655;28;20020;-37
2021/08/27 00:35:18;;;;;;;4.00;3.60;;;;;;;;;;5077706;28;20024;-38
2021/08/27 00:37:44;;;;;;;4.18;3.55;;;;;;;;;;5077888;28;20471;-37
2021/08/27 00:40:09;;;;;;;8.60;4.35;;;;;;;;;;5073595;28;20031;-38
2021/08/27 00:42:35;;;;;;;6.55;3.97;;;;;;;;;;5076529;28;20083;-37
2021/08/27 00:45:00;;;;;;;6.05;3.30;;;;;;;;;;5077662;28;20382;-37
2021/08/27 00:47:26;;;;;;;6.78;4.82;;;;;;;;;;5078687;28;20031;-36
2021/08/27 00:49:51;;;;;;;3.80;3.10;;;;;;;;;;5078706;28;20050;-37
2021/08/27 00:52:16;;;;;;;6.40;3.95;;;;;;;;;;5076094;28;20516;-37
2021/08/27 00:54:48;;;;;;;4.80;3.25;;;;;;;;;;5080487;28;20032;-37
2021/08/27 00:57:13;;;;;;;3.78;2.53;;;;;;;;;;5076899;28;20025;-36
2021/08/27 00:59:38;;;;;;;21.80;4.65;;;;;;;;;;5079616;28;20020;-36
2021/08/27 01:02:04;;;;;;;5.32;4.22;;;;;;;;;;5079315;28;20016;-37
2021/08/27 01:04:30;;;;;;;3.78;3.33;;;;;;;;;;5072407;28;20044;-37
2021/08/27 01:06:58;;;;;;;8.80;3.95;;;;;;;;;;5066447;28;20102;-37
2021/08/27 01:09:42;;;;;;;10.50;3.90;;;;;;;;;;5080480;28;20090;-37
2021/08/27 01:12:10;;;;;;;12.40;3.85;;;;;;;;;;5070644;28;20028;-37
2021/08/27 01:14:38;;;;;;;2.85;2.53;;;;;;;;;;5076504;28;20052;-37
2021/08/27 01:17:07;;;;;;;5.38;3.42;;;;;;;;;;5073101;28;20115;-38
2021/08/27 01:19:51;;;;;;;4.95;3.08;;;;;;;;;;5072324;28;20048;-35
2021/08/27 01:22:25;;;;;;;5.28;3.58;;;;;;;;;;5071661;28;20020;-35
2021/08/27 01:24:51;;;;;;;5.53;2.97;;;;;;;;;;5071348;28;20043;-36
2021/08/27 01:27:18;;;;;;;19.48;4.32;;;;;;;;;;5073106;28;20070;-36
2021/08/27 01:29:58;;;;;;;6.25;3.47;;;;;;;;;;5077073;28;20028;-36
2021/08/27 01:32:31;;;;;;;5.55;3.50;;;;;;;;;;5074896;28;20017;-36
2021/08/27 01:34:57;;;;;;;4.60;3.20;;;;;;;;;;5077622;28;20484;-35
2021/08/27 01:37:22;;;;;;;5.82;3.38;;;;;;;;;;5076054;28;20017;-36
2021/08/27 01:39:49;;;;;;;5.65;4.00;;;;;;;;;;5077640;28;20729;-36
2021/08/27 01:42:16;;;;;;;9.00;3.60;;;;;;;;;;5073757;28;20024;-37
2021/08/27 01:44:43;;;;;;;7.10;3.63;;;;;;;;;;5076133;28;20016;-36
2021/08/27 01:47:11;;;;;;;9.55;4.95;;;;;;;;;;5072307;28;20015;-36
2021/08/27 01:49:37;;;;;;;4.63;3.80;;;;;;;;;;5080713;28;20021;-36
2021/08/27 01:52:05;;;;;;;6.28;4.07;;;;;;;;;;5073078;28;20025;-36
2021/08/27 01:54:30;;;;;;;6.15;2.92;;;;;;;;;;5075068;28;20135;-37
2021/08/27 01:56:57;;;;;;;4.00;3.10;;;;;;;;;;5072268;28;20059;-37
2021/08/27 01:59:23;;;;;;;5.05;2.90;;;;;;;;;;5068926;28;20027;-36
2021/08/27 02:01:48;;;;;;;6.00;3.63;;;;;;;;;;5072498;28;20047;-36
2021/08/27 02:04:14;;;;;;;6.57;4.57;;;;;;;;;;5071461;28;20169;-36
2021/08/27 02:06:40;;;;;;;4.53;4.00;;;;;;;;;;5074516;28;20028;-36
2021/08/27 02:09:06;;;;;;;6.28;3.47;;;;;;;;;;5076393;28;20020;-36
2021/08/27 02:11:32;;;;;;;6.30;4.13;;;;;;;;;;5071160;28;20036;-36
2021/08/27 02:13:58;;;;;;;4.65;2.88;;;;;;;;;;5070649;28;20490;-37
2021/08/27 02:16:24;;;;;;;5.15;3.30;;;;;;;;;;5072726;28;20031;-36
2021/08/27 02:18:49;;;;;;;12.10;3.72;;;;;;;;;;5074522;28;20391;-36
2021/08/27 02:21:15;;;;;;;4.13;3.20;;;;;;;;;;5077480;28;20047;-37
2021/08/27 02:23:41;;;;;;;3.85;2.97;;;;;;;;;;5071460;28;20024;-36
2021/08/27 02:26:07;;;;;;;6.15;3.17;;;;;;;;;;5076984;28;20039;-35
2021/08/27 02:28:33;;;;;;;4.35;3.00;;;;;;;;;;5072313;28;20479;-35
2021/08/27 02:30:59;;;;;;;12.63;3.92;;;;;;;;;;5069446;28;20027;-35
2021/08/27 02:33:26;;;;;;;3.47;3.03;;;;;;;;;;5071871;28;20490;-36
2021/08/27 02:35:52;;;;;;;3.38;2.47;;;;;;;;;;5076497;28;20059;-36
2021/08/27 02:38:19;;;;;;;5.13;3.60;;;;;;;;;;5072403;28;20905;-36
2021/08/27 02:40:44;;;;;;;7.32;4.07;;;;;;;;;;5073336;28;20099;-36
2021/08/27 02:43:10;;;;;;;5.45;2.63;;;;;;;;;;5075906;28;20021;-36
2021/08/27 02:45:35;;;;;;;6.95;3.92;;;;;;;;;;5071058;28;20017;-36
2021/08/27 02:48:01;;;;;;;4.55;3.40;;;;;;;;;;5077361;28;20069;-36
2021/08/27 02:50:28;;;;;;;9.55;2.90;;;;;;;;;;5077351;28;20022;-36
2021/08/27 02:53:11;;;;;;;6.55;2.90;;;;;;;;;;5072803;28;20435;-36
2021/08/27 02:55:39;;;;;;;11.30;4.20;;;;;;;;;;5075884;28;20034;-36
2021/08/27 02:58:10;;;;;;;4.82;3.65;;;;;;;;;;5078942;28;20020;-36
2021/08/27 03:00:35;;;;;;;;;;;;;;;;;;5069810;28;20103;-36
2021/08/27 03:03:04;;;;;;;3.97;3.03;;;;;;;;;;5074991;28;20003;-36
2021/08/27 03:05:34;;;;;;;5.85;3.42;;;;;;;;;;5070026;28;20273;-36
2021/08/27 03:08:03;;;;;;;3.63;3.03;;;;;;;;;;5074023;28;20042;-36
2021/08/27 03:10:47;;;;;;;4.97;3.35;;;;;;;;;;5074937;28;20032;-36
2021/08/27 03:13:14;;;;;;;5.10;3.28;;;;;;;;;;5077477;28;20012;-36
2021/08/27 03:15:46;;;;;;;3.67;2.83;;;;;;;;;;5076925;28;20112;-36
2021/08/27 03:18:14;;;;;;;5.45;3.75;;;;;;;;;;5076295;28;20025;-36
2021/08/27 03:20:41;;;;;;;3.88;3.47;;;;;;;;;;5077120;28;20027;-36
2021/08/27 03:23:09;;;;;;;3.95;3.03;;;;;;;;;;5080368;28;20590;-37
2021/08/27 03:25:42;;;;;;;5.28;3.88;;;;;;;;;;5077175;28;20022;-36
2021/08/27 03:28:10;;;;;;;4.43;2.88;;;;;;;;;;5076360;28;20025;-36
2021/08/27 03:30:36;;;;;;;4.47;3.30;;;;;;;;;;5080578;28;20024;-38
2021/08/27 03:33:05;;;;;;;9.70;4.00;;;;;;;;;;5070411;28;20070;-37
2021/08/27 03:35:31;;;;;;;5.75;3.40;;;;;;;;;;5078729;28;20042;-37
2021/08/27 03:37:57;;;;;;;9.35;3.80;;;;;;;;;;5077936;28;20480;-37
2021/08/27 03:40:23;;;;;;;3.85;3.13;;;;;;;;;;5077904;28;20043;-37
2021/08/27 03:42:49;;;;;;;4.95;3.40;;;;;;;;;;5072978;28;20056;-37
2021/08/27 03:45:16;;;;;;;4.63;3.83;;;;;;;;;;5075443;28;20086;-37
2021/08/27 03:47:43;;;;;;;6.78;4.00;;;;;;;;;;5075575;28;20480;-37
2021/08/27 03:50:10;;;;;;;14.15;3.08;;;;;;;;;;5076064;28;20033;-37
2021/08/27 03:52:35;;;;;;;5.55;3.25;;;;;;;;;;5074561;28;20032;-36
2021/08/27 03:55:01;;;;;;;7.88;3.75;;;;;;;;;;5075560;28;20017;-36
2021/08/27 03:57:26;;;;;;;4.53;3.17;;;;;;;;;;5077848;28;20032;-36
2021/08/27 03:59:52;;;;;;;5.90;3.20;;;;;;;;;;5076511;28;20027;-36
2021/08/27 04:02:17;;;;;;;5.93;3.13;;;;;;;;;;5077869;28;20028;-36
2021/08/27 04:04:42;;;;;;;4.57;3.33;;;;;;;;;;5075362;28;20097;-36
2021/08/27 04:07:08;;;;;;;6.55;3.85;;;;;;;;;;5079531;28;20030;-36
2021/08/27 04:09:34;;;;;;;4.50;3.85;;;;;;;;;;5074611;28;20476;-37
2021/08/27 04:12:00;;;;;;;5.70;4.32;;;;;;;;;;5075127;28;20069;-36
2021/08/27 04:14:26;;;;;;;3.45;2.75;;;;;;;;;;5077996;28;20092;-36
2021/08/27 04:16:51;;;;;;;13.07;4.20;;;;;;;;;;5075205;28;20490;-36
2021/08/27 04:19:16;;;;;;;4.85;3.00;;;;;;;;;;5076238;28;20024;-36
2021/08/27 04:21:42;;;;;;;5.32;3.17;;;;;;;;;;5077887;28;20021;-36
2021/08/27 04:24:08;;;;;;;7.30;4.03;;;;;;;;;;5077389;28;20028;-36
2021/08/27 04:26:34;;;;;;;3.90;3.22;;;;;;;;;;5077186;28;20387;-36
2021/08/27 04:28:59;;;;;;;3.92;3.47;;;;;;;;;;5077411;28;20677;-36
2021/08/27 04:31:24;;;;;;;7.55;3.65;;;;;;;;;;5082035;28;20523;-36
2021/08/27 04:33:50;;;;;;;6.15;4.38;;;;;;;;;;5077171;28;20430;-36
2021/08/27 04:36:15;;;;;;;6.72;4.55;;;;;;;;;;5076368;28;20111;-36
2021/08/27 04:38:41;;;;;;;4.50;3.00;;;;;;;;;;5078949;28;20035;-36
2021/08/27 04:41:06;;;;;;;5.78;3.88;;;;;;;;;;5078921;28;20095;-36
2021/08/27 04:43:32;;;;;;;5.07;4.57;;;;;;;;;;5079135;28;20028;-36
2021/08/27 04:45:57;;;;;;;4.38;3.53;;;;;;;;;;5077046;28;20074;-36
2021/08/27 04:48:23;;;;;;;16.35;5.40;;;;;;;;;;5078137;28;20386;-36
2021/08/27 04:50:48;;;;;;;7.55;3.78;;;;;;;;;;5076866;28;20036;-36
2021/08/27 04:53:13;;;;;;;6.72;4.15;;;;;;;;;;5076220;28;20490;-38
2021/08/27 04:55:38;;;;;;;10.45;3.22;;;;;;;;;;5077510;28;20027;-38
2021/08/27 04:58:04;;;;;;;4.88;3.90;;;;;;;;;;5080450;28;20021;-38
2021/08/27 05:00:29;;;;;;;5.53;3.97;;;;;;;;;;5076171;28;20628;-39
2021/08/27 05:02:54;;;;;;;7.88;2.65;;;;;;;;;;5077419;28;20362;-39
2021/08/27 05:05:20;;;;;;;6.00;4.25;;;;;;;;;;5072359;28;20087;-38
2021/08/27 05:07:45;;;;;;;10.00;4.25;;;;;;;;;;5070615;28;20019;-38
2021/08/27 05:10:11;;;;;;;4.93;4.03;;;;;;;;;;5077425;28;20093;-37
2021/08/27 05:12:36;;;;;;;5.47;4.53;;;;;;;;;;5069587;28;20021;-37
2021/08/27 05:15:02;;;;;;;6.28;4.38;;;;;;;;;;5077575;28;20036;-38
2021/08/27 05:17:28;;;;;;;3.50;2.80;;;;;;;;;;5073964;28;20547;-39
2021/08/27 05:19:53;;;;;;;4.82;3.65;;;;;;;;;;5072466;28;20085;-39
2021/08/27 05:22:18;;;;;;;5.75;3.90;;;;;;;;;;5077565;28;20016;-38
2021/08/27 05:24:44;;;;;;;8.13;5.70;;;;;;;;;;5077415;28;20024;-38
2021/08/27 05:27:09;;;;;;;4.95;3.90;;;;;;;;;;5077979;28;20057;-38
2021/08/27 05:29:35;;;;;;;9.13;4.65;;;;;;;;;;5072354;28;20051;-38
2021/08/27 05:32:00;;;;;;;5.32;4.82;;;;;;;;;;5068541;28;20468;-38
2021/08/27 05:34:25;;;;;;;7.72;4.00;;;;;;;;;;5073702;28;20020;-38
2021/08/27 05:36:51;;;;;;;6.45;5.07;;;;;;;;;;5072399;28;20052;-37
2021/08/27 05:39:16;;;;;;;10.52;5.40;;;;;;;;;;5072925;28;20024;-36
2021/08/27 05:41:42;;;;;;;8.57;5.90;;;;;;;;;;5069710;28;20025;-36
2021/08/27 05:44:07;;;;;;;7.25;4.25;;;;;;;;;;5075647;28;20021;-37
2021/08/27 05:46:32;;;;;;;8.43;4.55;;;;;;;;;;5074549;28;20016;-37
2021/08/27 05:48:58;;;;;;;4.53;3.67;;;;;;;;;;5075702;28;20020;-37
2021/08/27 05:51:23;;;;;;;6.90;5.40;;;;;;;;;;5072384;28;20545;-37
2021/08/27 05:53:48;;;;;;;8.88;4.18;;;;;;;;;;5071772;28;20026;-37
2021/08/27 05:56:14;;;;;;;9.02;4.57;;;;;;;;;;5090083;28;20063;-37
2021/08/27 05:58:39;;;;;;;11.10;4.40;;;;;;;;;;5062209;28;20021;-37
2021/08/27 06:01:04;;;;;;;7.60;4.95;;;;;;;;;;5069788;28;20024;-37
2021/08/27 06:03:30;;;;;;;9.50;4.15;;;;;;;;;;5076333;28;20075;-37
2021/08/27 06:05:56;;;;;;;25.77;6.40;;;;;;;;;;5067680;28;20025;-37
2021/08/27 06:08:21;;;;;;;4.88;4.40;;;;;;;;;;5075958;28;20032;-37
2021/08/27 06:10:47;;;;;;;9.55;4.45;;;;;;;;;;5071381;28;20020;-37
2021/08/27 06:13:12;;;;;;;6.53;4.40;;;;;;;;;;5073226;28;20506;-37
2021/08/27 06:15:42;;;;;;;5.45;4.30;;;;;;;;;;5072093;28;20479;-36
2021/08/27 06:18:08;;;;;;;4.00;3.17;;;;;;;;;;5062122;28;20036;-37
2021/08/27 06:20:33;;;;;;;13.32;6.15;;;;;;;;;;5067003;28;20013;-38
2021/08/27 06:22:58;;;;;;;7.35;4.22;;;;;;;;;;5073615;28;20533;-37
2021/08/27 06:25:23;;;;;;;16.02;3.92;;;;;;;;;;5071848;28;20016;-37
2021/08/27 06:27:49;;;;;;;9.68;5.10;;;;;;;;;;5076318;28;20383;-37
2021/08/27 06:30:14;;;;;;;7.38;5.25;;;;;;;;;;5074658;28;20082;-37
2021/08/27 06:32:40;;;;;;;6.05;5.00;;;;;;;;;;5070697;28;20479;-37
2021/08/27 06:35:05;;;;;;;8.18;5.43;;;;;;;;;;5072235;28;20101;-37
2021/08/27 06:40:31;;;;;;;9.80;6.10;;;;;;;;;;5021265;28;20038;-37
2021/08/27 06:42:57;;;;;;;11.38;5.05;;;;;;;;;;5062273;28;20031;-37
2021/08/27 06:45:22;;;;;;;5.38;4.55;;;;;;;;;;5071218;28;20486;-37
2021/08/27 06:47:47;;;;;;;6.65;5.38;;;;;;;;;;5071769;28;20020;-37
2021/08/27 06:50:13;;;;;;;15.27;4.82;;;;;;;;;;5070237;28;20407;-37
2021/08/27 06:52:38;;;;;;;9.02;5.72;;;;;;;;;;5073909;28;20526;-37
2021/08/27 06:55:03;;;;;;;9.85;6.78;;;;;;;;;;5075015;28;20099;-38
2021/08/27 06:57:29;;;;;;;10.45;5.50;;;;;;;;;;5071849;28;20029;-37
2021/08/27 06:59:54;;;;;;;23.23;6.63;;;;;;;;;;5074868;28;20030;-37
2021/08/27 07:02:20;;;;;;;8.38;7.15;;;;;;;;;;5072752;28;20038;-37
2021/08/27 07:04:45;;;;;;;6.90;5.07;;;;;;;;;;5073866;28;20051;-37
2021/08/27 07:07:10;;;;;;;13.95;7.53;;;;;;;;;;5072899;28;20056;-38
2021/08/27 07:09:36;;;;;;;9.10;5.70;;;;;;;;;;5072024;28;20078;-38
2021/08/27 07:12:01;;;;;;;13.18;7.20;;;;;;;;;;5076235;28;20020;-39
2021/08/27 07:14:27;;;;;;;12.85;5.47;;;;;;;;;;5071584;28;20033;-37
2021/08/27 07:16:52;;;;;;;14.65;5.35;;;;;;;;;;5070564;28;20044;-44
2021/08/27 07:19:17;;;;;;;9.93;5.72;;;;;;;;;;5075117;28;20026;-38
2021/08/27 07:21:42;;;;;;;8.52;5.50;;;;;;;;;;5072514;28;20094;-45
2021/08/27 07:24:08;;;;;;;12.13;7.03;;;;;;;;;;5073799;28;20031;-41
2021/08/27 07:26:33;;;;;;;9.27;6.32;;;;;;;;;;5073654;28;20361;-35
2021/08/27 07:28:58;;;;;;;9.05;6.25;;;;;;;;;;5074227;28;20024;-43
2021/08/27 07:31:24;;;;;;;7.75;6.25;;;;;;;;;;5074283;28;20033;-41
2021/08/27 07:33:49;;;;;;;5.65;5.15;;;;;;;;;;5074234;28;20032;-39
2021/08/27 07:36:14;;;;;;;12.15;6.00;;;;;;;;;;5071064;28;20027;-37
2021/08/27 07:38:40;;;;;;;6.97;5.72;;;;;;;;;;5071731;28;20028;-38
2021/08/27 07:41:05;;;;;;;9.95;5.85;;;;;;;;;;5067753;28;20026;-38
2021/08/27 07:43:30;;;;;;;8.52;5.30;;;;;;;;;;5065699;28;20032;-37
2021/08/27 07:45:59;;;;;;;7.65;4.75;;;;;;;;;;5066384;28;20576;-37
2021/08/27 07:48:25;;;;;;;7.47;5.22;;;;;;;;;;5072243;28;20099;-36
2021/08/27 07:50:50;;;;;;;13.90;6.47;;;;;;;;;;5073945;28;20029;-36
2021/08/27 07:53:15;;;;;;;18.98;6.65;;;;;;;;;;5070197;28;20025;-37
2021/08/27 07:55:41;;;;;;;16.58;6.15;;;;;;;;;;5070638;28;20486;-36
2021/08/27 07:58:06;;;;;;;6.97;3.72;;;;;;;;;;5072040;28;20047;-37
2021/08/27 08:00:31;;;;;;;7.68;4.82;;;;;;;;;;5069774;28;20206;-37
2021/08/27 08:02:57;;;;;;;7.30;4.75;;;;;;;;;;5076162;28;20028;-36
2021/08/27 08:05:22;;;;;;;8.00;4.72;;;;;;;;;;5073572;28;20052;-37
2021/08/27 08:07:47;;;;;;;5.20;4.68;;;;;;;;;;5076285;28;20078;-37
2021/08/27 08:10:13;;;;;;;10.65;6.30;;;;;;;;;;5071899;28;20028;-38
2021/08/27 08:12:38;;;;;;;13.68;4.35;;;;;;;;;;5072601;28;20043;-37
2021/08/27 08:15:04;;;;;;;13.90;4.03;;;;;;;;;;5074735;28;20490;-38
2021/08/27 08:17:29;;;;;;;6.53;4.60;;;;;;;;;;5072881;28;20028;-38
2021/08/27 08:19:54;;;;;;;8.40;4.95;;;;;;;;;;5076430;28;20658;-37
2021/08/27 08:22:21;;;;;;;13.25;6.10;;;;;;;;;;5076133;28;20025;-37
2021/08/27 08:24:47;;;;;;;7.55;5.90;;;;;;;;;;5075459;28;20051;-39
2021/08/27 08:27:12;;;;;;;7.43;5.50;;;;;;;;;;5073684;28;20047;-36
2021/08/27 08:29:38;;;;;;;7.18;4.53;;;;;;;;;;5074814;28;20073;-35
2021/08/27 08:32:05;;;;;;;4.40;3.38;;;;;;;;;;5077819;28;20761;-36
2021/08/27 08:34:30;;;;;;;4.70;4.25;;;;;;;;;;5075424;28;20020;-36
2021/08/27 08:36:55;;;;;;;8.15;4.35;;;;;;;;;;5078018;28;20047;-37
2021/08/27 08:39:21;;;;;;;7.82;4.00;;;;;;;;;;5076156;28;20028;-37
2021/08/27 08:41:47;;;;;;;8.52;4.57;;;;;;;;;;5073963;28;20021;-37
2021/08/27 08:44:13;;;;;;;5.78;4.03;;;;;;;;;;5078099;28;20016;-36
2021/08/27 08:46:39;;;;;;;4.05;2.70;;;;;;;;;;5077644;28;20028;-37
2021/08/27 08:49:05;;;;;;;8.35;4.30;;;;;;;;;;5076262;28;20024;-37
2021/08/27 08:51:31;;;;;;;8.15;3.25;;;;;;;;;;5075329;28;20617;-38
2021/08/27 08:53:56;;;;;;;5.50;3.83;;;;;;;;;;5072484;28;20035;-37
2021/08/27 08:56:22;;;;;;;9.23;4.38;;;;;;;;;;5075586;28;20024;-35
2021/08/27 08:58:47;;;;;;;17.38;4.10;;;;;;;;;;5075144;28;20107;-35
2021/08/27 09:01:17;;;;;;;12.95;3.25;;;;;;;;;;5070271;28;20592;-35
2021/08/27 09:03:43;;;;;;;10.18;4.63;;;;;;;;;;5072884;28;20016;-35
2021/08/27 09:06:08;;;;;;;14.18;4.65;;;;;;;;;;5071499;28;20031;-35
2021/08/27 09:08:36;;;;;;;16.77;6.05;;;;;;;;;;5071807;28;20071;-35
2021/08/27 09:11:12;;;;;;;8.10;4.40;;;;;;;;;;5072736;28;20061;-35
2021/08/27 09:13:37;;;;;;;3.60;2.95;;;;;;;;;;5072317;28;20060;-35
2021/08/27 09:16:04;;;;;;;5.03;4.32;;;;;;;;;;5073410;28;20089;-35
2021/08/27 09:18:35;;;;;;;5.72;3.38;;;;;;;;;;5074158;28;20017;-37
2021/08/27 09:21:04;;;;;;;;;;;;;;;;;;5077661;28;20016;-37
2021/08/27 09:23:29;;;;;;;8.35;4.13;;;;;;;;;;5075307;28;19909;-37
2021/08/27 09:25:55;;;;;;;7.22;3.88;;;;;;;;;;5072619;28;20122;-37
2021/08/27 09:28:21;;;;;;;11.18;2.63;;;;;;;;;;5071208;28;20623;-38
2021/08/27 09:30:46;;;;;;;5.32;3.00;;;;;;;;;;5071863;28;20032;-44
2021/08/27 09:33:13;;;;;;;10.40;3.05;;;;;;;;;;5068680;28;20120;-46
2021/08/27 09:35:38;;;;;;;5.07;3.03;;;;;;;;;;5070317;28;20495;-46
2021/08/27 09:38:13;;;;;;;4.75;2.88;;;;;;;;;;5070743;28;20032;-46
2021/08/27 09:40:39;;;;;;;5.95;2.83;;;;;;;;;;5069769;28;20036;-46
2021/08/27 09:43:06;;;;;;;4.57;2.38;;;;;;;;;;5072281;28;20012;-48
2021/08/27 09:45:36;;;;;;;3.38;2.38;;;;;;;;;;5077069;28;20032;-43
2021/08/27 09:48:03;;;;;;;2.58;2.00;;;;;;;;;;5069992;28;20038;-43
2021/08/27 09:50:30;;;;;;;6.28;2.78;;;;;;;;;;5071657;28;20040;-43
2021/08/27 09:53:00;;;;;;;3.28;2.05;;;;;;;;;;5061780;28;20036;-43
2021/08/27 09:55:26;;;;;;;4.07;2.78;;;;;;;;;;5063178;28;20031;-43
2021/08/27 09:58:00;;;;;;;4.43;2.20;;;;;;;;;;5069797;28;20028;-43
2021/08/27 10:00:25;;;;;;;5.53;1.55;;;;;;;;;;5070675;28;20795;-43
2021/08/27 10:02:50;;;;;;;4.97;2.08;;;;;;;;;;5076383;28;20039;-47
2021/08/27 10:05:16;;;;;;;3.80;2.25;;;;;;;;;;5067730;28;20048;-46
2021/08/27 10:07:41;;;;;;;7.97;5.07;;;;;;;;;;5071459;28;20021;-46
2021/08/27 10:10:08;;;;;;;5.78;2.45;;;;;;;;;;5069912;28;20070;-45
2021/08/27 10:12:34;;;;;;;2.05;1.63;;;;;;;;;;5067578;28;20025;-45
2021/08/27 10:15:00;;;;;;;4.82;2.35;;;;;;;;;;5070972;28;20024;-47
2021/08/27 10:17:27;;;;;;;3.28;1.48;;;;;;;;;;5070542;28;20555;-47
2021/08/27 10:19:52;;;;;;;7.78;2.00;;;;;;;;;;5068742;28;20075;-48
2021/08/27 10:22:18;;;;;;;4.38;2.30;;;;;;;;;;5065005;28;20016;-46
2021/08/27 10:24:46;;;;;;;3.60;2.85;;;;;;;;;;5072294;28;20016;-47
2021/08/27 10:27:14;;;;;;;6.93;3.72;;;;;;;;;;5076522;28;20486;-47
2021/08/27 10:29:56;;;;;;;3.50;2.03;;;;;;;;;;5073798;28;20074;-48
2021/08/27 10:32:40;;;;;;;5.55;3.17;;;;;;;;;;5066889;28;20038;-47
2021/08/27 10:35:29;;;;;;;4.18;1.60;;;;;;;;;;5063552;28;20024;-46
2021/08/27 10:37:54;;;;;;;3.17;2.13;;;;;;;;;;5071124;28;20024;-37
2021/08/27 10:40:22;;;;;;;4.30;3.20;;;;;;;;;;5069129;28;20021;-38
2021/08/27 10:42:58;;;;;;;3.72;2.40;;;;;;;;;;5069738;28;20024;-37
2021/08/27 10:45:32;;;;;;;9.85;2.85;;;;;;;;;;5069587;28;20480;-40
2021/08/27 10:48:06;;;;;;;9.77;3.60;;;;;;;;;;5071256;28;20024;-37
2021/08/27 10:50:31;;;;;;;6.30;3.38;;;;;;;;;;5070751;28;20032;-37
2021/08/27 10:53:16;;;;;;;5.13;2.33;;;;;;;;;;5070459;28;20035;-37
2021/08/27 10:55:42;;;;;;;4.85;2.50;;;;;;;;;;5067260;28;20036;-37
2021/08/27 10:58:10;;;;;;;4.80;2.38;;;;;;;;;;5071188;28;20020;-39
2021/08/27 11:00:40;;;;;;;4.65;2.63;;;;;;;;;;5071701;28;20020;-38
2021/08/27 11:03:06;;;;;;;4.33;1.90;;;;;;;;;;5067888;28;20522;-37
2021/08/27 11:05:33;;;;;;;3.95;2.53;;;;;;;;;;5071370;28;20070;-37
2021/08/27 11:08:02;;;;;;;7.68;3.60;;;;;;;;;;5068090;28;20030;-37
2021/08/27 11:10:28;;;;;;;4.07;2.60;;;;;;;;;;5068661;28;20028;-37
2021/08/27 11:12:56;;;;;;;4.40;2.72;;;;;;;;;;5070726;28;20143;-37
2021/08/27 11:15:23;;;;;;;6.13;2.60;;;;;;;;;;5071879;28;20024;-37
2021/08/27 11:18:07;;;;;;;4.70;3.55;;;;;;;;;;5068731;28;20124;-38
2021/08/27 11:20:32;;;;;;;3.85;2.25;;;;;;;;;;5069589;28;20024;-37
2021/08/27 11:22:58;;;;;;;5.35;3.67;;;;;;;;;;5070847;28;20086;-37
2021/08/27 11:25:24;;;;;;;9.23;2.08;;;;;;;;;;5075480;28;20073;-37
2021/08/27 11:28:08;;;;;;;6.22;2.90;;;;;;;;;;5067811;28;20020;-37
2021/08/27 11:30:34;;;;;;;3.08;1.52;;;;;;;;;;5075449;28;20019;-38
2021/08/27 11:33:00;;;;;;;10.88;3.90;;;;;;;;;;5074306;28;20016;-37
2021/08/27 11:35:25;;;;;;;9.80;3.60;;;;;;;;;;5078489;28;20017;-37
2021/08/27 11:37:58;;;;;;;8.88;2.95;;;;;;;;;;5081434;28;20610;-36
2021/08/27 11:40:24;;;;;;;3.25;2.60;;;;;;;;;;5075847;28;20016;-37
2021/08/27 11:42:54;;;;;;;6.70;3.13;;;;;;;;;;5075687;28;20021;-35
2021/08/27 11:45:21;;;;;;;5.93;2.92;;;;;;;;;;5078630;28;20021;-34
2021/08/27 11:47:54;;;;;;;6.07;2.83;;;;;;;;;;5076517;28;20020;-39
2021/08/27 11:50:23;;;;;;;12.25;4.55;;;;;;;;;;5075232;28;20014;-38
2021/08/27 11:52:54;;;;;;;3.20;2.47;;;;;;;;;;5072794;28;20107;-37
2021/08/27 11:55:20;;;;;;;4.35;2.65;;;;;;;;;;5077117;28;20044;-37
2021/08/27 11:57:53;;;;;;;6.72;3.70;;;;;;;;;;5075007;28;20750;-40
2021/08/27 12:00:19;;;;;;;7.03;3.35;;;;;;;;;;5078212;28;20094;-38
2021/08/27 12:02:44;;;;;;;14.35;4.45;;;;;;;;;;5081810;28;20020;-36
2021/08/27 12:05:11;;;;;;;7.38;3.47;;;;;;;;;;5079074;28;20059;-37
2021/08/27 12:07:40;;;;;;;6.45;3.58;;;;;;;;;;5079820;28;20017;-38
2021/08/27 12:10:10;;;;;;;5.20;2.90;;;;;;;;;;5074617;28;20021;-38
2021/08/27 12:12:38;;;;;;;3.88;2.92;;;;;;;;;;5076345;28;20044;-37
2021/08/27 12:15:04;;;;;;;9.48;3.78;;;;;;;;;;5079318;28;20017;-37
2021/08/27 12:17:29;;;;;;;4.22;2.63;;;;;;;;;;5075073;28;20017;-38
2021/08/27 12:19:59;;;;;;;8.60;5.43;;;;;;;;;;5071018;28;20368;-42
2021/08/27 12:22:27;;;;;;;12.60;4.13;;;;;;;;;;5075927;28;20040;-38
2021/08/27 12:24:53;;;;;;;9.38;3.85;;;;;;;;;;5078572;28;20047;-40
2021/08/27 12:27:20;;;;;;;8.52;2.38;;;;;;;;;;5075363;28;20209;-40
2021/08/27 12:29:45;;;;;;;4.50;2.97;;;;;;;;;;5074260;28;20024;-39
2021/08/27 12:32:15;;;;;;;3.53;2.17;;;;;;;;;;5074877;28;20591;-42
2021/08/27 12:34:43;;;;;;;4.13;2.40;;;;;;;;;;5069925;28;20101;-41
2021/08/27 12:37:09;;;;;;;6.60;3.13;;;;;;;;;;5077003;28;20256;-40
2021/08/27 12:39:34;;;;;;;6.00;2.97;;;;;;;;;;5072905;28;20502;-39
2021/08/27 12:42:12;;;;;;;10.18;4.05;;;;;;;;;;5076478;28;20021;-40
2021/08/27 12:44:54;;;;;;;18.98;4.15;;;;;;;;;;5073560;28;20032;-39
2021/08/27 12:47:27;;;;;;;11.98;3.70;;;;;;;;;;5074518;28;20024;-40
2021/08/27 12:50:00;;;;;;;3.55;2.33;;;;;;;;;;5073974;28;20020;-39
2021/08/27 12:52:25;;;;;;;12.13;3.60;;;;;;;;;;5078406;28;20488;-40
2021/08/27 12:54:50;;;;;;;6.13;3.75;;;;;;;;;;5069774;28;20052;-38
2021/08/27 12:57:16;;;;;;;12.50;3.00;;;;;;;;;;5070824;28;20511;-39
2021/08/27 12:59:53;;;;;;;10.48;2.92;;;;;;;;;;5074693;28;20078;-39
2021/08/27 13:02:21;;;;;;;4.53;3.53;;;;;;;;;;5086220;28;20017;-41
2021/08/27 13:04:47;;;;;;;6.25;2.95;;;;;;;;;;5073815;28;20048;-40
2021/08/27 13:07:26;;;;;;;7.43;3.58;;;;;;;;;;5069580;28;20464;-40
2021/08/27 13:10:05;;;;;;;9.13;3.72;;;;;;;;;;5071099;28;20035;-38
2021/08/27 13:12:31;;;;;;;5.10;2.57;;;;;;;;;;5078069;28;20039;-40
2021/08/27 13:14:57;;;;;;;9.32;3.85;;;;;;;;;;5077716;28;20543;-41
2021/08/27 13:17:23;;;;;;;10.32;3.70;;;;;;;;;;5070895;28;20028;-39
2021/08/27 13:19:48;;;;;;;8.95;3.08;;;;;;;;;;5076059;28;20016;-39
2021/08/27 13:22:15;;;;;;;4.68;2.35;;;;;;;;;;5074903;28;20119;-40
2021/08/27 13:24:40;;;;;;;13.63;3.20;;;;;;;;;;5074560;28;20126;-40
2021/08/27 13:27:06;;;;;;;4.63;2.67;;;;;;;;;;5076539;28;20074;-39
2021/08/27 13:29:31;;;;;;;6.68;2.63;;;;;;;;;;5072112;28;20033;-39
2021/08/27 13:31:56;;;;;;;4.28;2.83;;;;;;;;;;5071534;28;20070;-38
2021/08/27 13:34:22;;;;;;;8.45;3.13;;;;;;;;;;5071349;28;20023;-38
2021/08/27 13:36:47;;;;;;;5.88;3.40;;;;;;;;;;5074018;28;20020;-37
2021/08/27 13:39:12;;;;;;;5.35;3.58;;;;;;;;;;5071888;28;20025;-38
2021/08/27 13:41:41;;;;;;;4.97;2.97;;;;;;;;;;5071680;28;20439;-42
2021/08/27 13:44:07;;;;;;;10.68;3.47;;;;;;;;;;5073604;28;20017;-43
2021/08/27 13:46:36;;;;;;;6.95;3.13;;;;;;;;;;5069802;28;20035;-40
2021/08/27 13:49:02;;;;;;;7.43;3.33;;;;;;;;;;5074514;28;20024;-39
2021/08/27 13:51:27;;;;;;;4.90;2.83;;;;;;;;;;5073867;28;20016;-39
2021/08/27 13:53:53;;;;;;;11.25;2.47;;;;;;;;;;5072519;28;20046;-40
2021/08/27 13:56:18;;;;;;;17.17;4.40;;;;;;;;;;5074143;28;20046;-39
2021/08/27 13:58:44;;;;;;;9.38;3.15;;;;;;;;;;5072362;28;20480;-40
2021/08/27 14:01:09;;;;;;;7.50;4.15;;;;;;;;;;5072934;28;20029;-40
2021/08/27 14:03:34;;;;;;;4.20;2.80;;;;;;;;;;5071717;28;20107;-40
2021/08/27 14:06:00;;;;;;;18.88;3.97;;;;;;;;;;5072546;28;20096;-40
2021/08/27 14:08:25;;;;;;;5.65;2.90;;;;;;;;;;5071433;28;20351;-42
2021/08/27 14:10:50;;;;;;;7.72;4.68;;;;;;;;;;5073512;28;20019;-39
2021/08/27 14:13:16;;;;;;;7.45;2.80;;;;;;;;;;5072655;28;20058;-38
2021/08/27 14:15:41;;;;;;;6.90;2.50;;;;;;;;;;5071415;28;20035;-39
2021/08/27 14:18:06;;;;;;;6.75;3.47;;;;;;;;;;5076096;28;20024;-39
2021/08/27 14:20:32;;;;;;;7.05;3.13;;;;;;;;;;5071995;28;20020;-38
2021/08/27 14:22:57;;;;;;;5.85;3.58;;;;;;;;;;5072029;28;20742;-38
2021/08/27 14:25:23;;;;;;;5.75;2.38;;;;;;;;;;5073824;28;20566;-38
2021/08/27 14:27:48;;;;;;;7.30;3.85;;;;;;;;;;5073782;28;20020;-40
2021/08/27 14:30:14;;;;;;;5.45;3.60;;;;;;;;;;5064670;28;20029;-41
2021/08/27 14:32:42;;;;;;;7.03;3.63;;;;;;;;;;5070995;28;20021;-36
2021/08/27 14:35:08;;;;;;;3.90;3.03;;;;;;;;;;5070434;28;20027;-46
2021/08/27 14:37:34;;;;;;;6.85;4.55;;;;;;;;;;5074895;28;20644;-41
2021/08/27 14:39:59;;;;;;;6.03;4.10;;;;;;;;;;5070228;28;20550;-45
2021/08/27 14:42:24;;;;;;;7.97;3.47;;;;;;;;;;5069859;28;20059;-38